Time;durP1;ratioP1;P1;durP2;ratioP2;P2;SDS_P1;SDS_P2;PMS_P1;PMS_P2;Temp;Humidity;BMP_temperature;BMP_pressure;BME280_temperature;BME280_humidity;BME280_pressure;Samples;Min_cycle;Max_cycle;Signal;HPM_P1;HPM_P2
2022/07/25 00:00:48;;;;;;;12.07;2.95;;;18.50;99.90;;;;;;4992106;28;20171;-68
2022/07/25 00:03:13;;;;;;;10.82;3.08;;;18.40;99.90;;;;;;4992012;28;20171;-68
2022/07/25 00:05:39;;;;;;;8.65;2.85;;;18.40;99.90;;;;;;4991741;28;20545;-67
2022/07/25 00:08:05;;;;;;;12.07;3.10;;;18.40;99.90;;;;;;4992090;28;20318;-58
2022/07/25 00:10:31;;;;;;;12.00;3.65;;;18.40;99.90;;;;;;4994565;28;20642;-57
2022/07/25 00:12:57;;;;;;;10.98;3.00;;;18.40;99.90;;;;;;5011457;28;20371;-58
2022/07/25 00:15:22;;;;;;;9.57;3.08;;;18.40;99.90;;;;;;5011499;28;20716;-58
2022/07/25 00:17:48;;;;;;;13.23;3.08;;;18.40;99.90;;;;;;5011313;28;20544;-58
2022/07/25 00:20:14;;;;;;;11.23;3.22;;;18.40;99.90;;;;;;5008251;28;20178;-57
2022/07/25 00:22:40;;;;;;;13.85;3.22;;;18.40;99.90;;;;;;5011056;28;20185;-57
2022/07/25 00:25:06;;;;;;;10.27;2.88;;;18.50;99.90;;;;;;5010977;28;20230;-57
2022/07/25 00:27:32;;;;;;;12.52;3.13;;;18.50;99.90;;;;;;5011260;28;20715;-58
2022/07/25 00:29:58;;;;;;;10.48;3.22;;;18.20;99.90;;;;;;5011188;28;20175;-57
2022/07/25 00:32:23;;;;;;;9.10;3.17;;;18.60;99.90;;;;;;5011066;28;20249;-57
2022/07/25 00:34:49;;;;;;;10.95;2.67;;;18.60;99.90;;;;;;5011106;28;20193;-58
2022/07/25 00:37:15;;;;;;;9.65;2.70;;;18.60;99.90;;;;;;5010964;28;20265;-58
2022/07/25 00:39:41;;;;;;;16.10;3.15;;;18.60;99.90;;;;;;5002147;28;20642;-58
2022/07/25 00:42:07;;;;;;;9.02;2.72;;;18.60;99.90;;;;;;4991529;28;20167;-58
2022/07/25 00:44:32;;;;;;;13.90;3.17;;;18.60;99.90;;;;;;4991323;28;20171;-58
2022/07/25 00:46:59;;;;;;;12.20;2.90;;;18.60;99.90;;;;;;4991335;28;20226;-58
2022/07/25 00:49:25;;;;;;;10.70;2.90;;;18.50;99.90;;;;;;4991101;28;20388;-58
2022/07/25 00:51:52;;;;;;;9.85;3.13;;;18.50;99.90;;;;;;4991235;28;20164;-58
2022/07/25 00:54:18;;;;;;;16.45;3.35;;;18.50;99.90;;;;;;4991455;28;20178;-58
2022/07/25 00:56:44;;;;;;;6.53;2.70;;;18.50;99.90;;;;;;4991126;28;20538;-58
2022/07/25 00:59:10;;;;;;;10.95;2.67;;;18.40;99.90;;;;;;4991331;28;20179;-58
2022/07/25 01:01:37;;;;;;;12.82;2.90;;;18.40;99.90;;;;;;4991252;28;20171;-58
2022/07/25 01:04:04;;;;;;;11.80;3.05;;;18.40;99.90;;;;;;4995582;28;20177;-58
2022/07/25 01:06:30;;;;;;;8.45;2.50;;;18.30;99.90;;;;;;4993150;28;20187;-59
2022/07/25 01:08:57;;;;;;;7.50;2.45;;;18.30;99.90;;;;;;4993321;28;20183;-58
2022/07/25 01:11:23;;;;;;;10.52;2.65;;;18.20;99.90;;;;;;5010843;28;20183;-58
2022/07/25 01:13:49;;;;;;;12.23;2.72;;;18.20;99.90;;;;;;5010784;28;20202;-59
2022/07/25 01:16:15;;;;;;;8.73;2.78;;;18.20;99.90;;;;;;5010875;28;20194;-58
2022/07/25 01:18:41;;;;;;;10.57;2.53;;;18.10;99.90;;;;;;5010732;28;20264;-58
2022/07/25 01:21:08;;;;;;;12.60;3.08;;;18.10;99.90;;;;;;5009994;28;20194;-58
2022/07/25 01:23:34;;;;;;;10.20;2.58;;;18.20;99.90;;;;;;5010852;28;20734;-58
2022/07/25 01:25:59;;;;;;;9.48;2.53;;;18.20;99.90;;;;;;5010602;28;20309;-58
2022/07/25 01:28:25;;;;;;;10.88;2.70;;;18.20;99.90;;;;;;5010782;28;20253;-58
2022/07/25 01:30:51;;;;;;;9.00;3.03;;;18.20;99.90;;;;;;5010009;28;20533;-58
2022/07/25 01:33:18;;;;;;;9.02;2.28;;;18.20;99.90;;;;;;5010403;28;20579;-58
2022/07/25 01:35:45;;;;;;;10.40;2.88;;;18.20;99.90;;;;;;5010712;28;20181;-59
2022/07/25 01:38:11;;;;;;;15.75;2.75;;;18.20;99.90;;;;;;4999238;28;20266;-59
2022/07/25 01:40:38;;;;;;;12.95;2.50;;;18.10;99.90;;;;;;4990934;28;20172;-59
2022/07/25 01:43:04;;;;;;;10.27;2.97;;;18.10;99.90;;;;;;4990975;28;20171;-58
2022/07/25 01:45:30;;;;;;;15.70;2.85;;;18.00;99.90;;;;;;5005470;28;20567;-59
2022/07/25 01:47:56;;;;;;;11.65;2.58;;;17.90;99.90;;;;;;5014059;28;20265;-59
2022/07/25 01:50:22;;;;;;;9.43;3.00;;;17.70;99.90;;;;;;5013940;28;20250;-59
2022/07/25 01:52:48;;;;;;;17.52;3.45;;;17.40;99.90;;;;;;5013980;28;20214;-59
2022/07/25 01:55:14;;;;;;;17.48;3.08;;;17.20;99.90;;;;;;5013907;28;20186;-59
2022/07/25 01:57:40;;;;;;;12.35;3.40;;;17.00;99.90;;;;;;5013843;28;20170;-59
2022/07/25 02:00:10;;;;;;;12.15;3.28;;;16.90;99.90;;;;;;5013897;28;20485;-59
2022/07/25 02:02:36;;;;;;;9.63;2.85;;;16.80;99.90;;;;;;5013753;28;20268;-59
2022/07/25 02:05:02;;;;;;;9.88;2.58;;;16.70;99.90;;;;;;4995481;28;20305;-59
2022/07/25 02:07:27;;;;;;;9.82;2.60;;;16.60;99.90;;;;;;5002461;28;20179;-58
2022/07/25 02:09:53;;;;;;;9.65;2.90;;;16.60;99.90;;;;;;5013590;28;20178;-59
2022/07/25 02:12:19;;;;;;;15.13;2.83;;;16.60;99.90;;;;;;5013619;28;20272;-58
2022/07/25 02:14:45;;;;;;;11.07;3.03;;;16.60;99.90;;;;;;5013561;28;20257;-59
2022/07/25 02:17:11;;;;;;;13.45;3.22;;;16.60;99.90;;;;;;5013553;28;20789;-59
2022/07/25 02:19:36;;;;;;;17.45;3.28;;;16.70;99.90;;;;;;5013524;28;20166;-59
2022/07/25 02:22:03;;;;;;;12.88;3.35;;;16.70;99.90;;;;;;5011007;28;20657;-59
2022/07/25 02:24:28;;;;;;;10.63;2.78;;;16.70;99.90;;;;;;5003732;28;20582;-59
2022/07/25 02:26:54;;;;;;;10.07;3.13;;;16.70;99.90;;;;;;4995490;28;20177;-69
2022/07/25 02:29:20;;;;;;;15.75;2.83;;;17.10;99.90;;;;;;5013277;28;20178;-59
2022/07/25 02:31:46;;;;;;;11.25;3.25;;;16.80;99.90;;;;;;4999743;28;20625;-58
2022/07/25 02:34:12;;;;;;;16.52;3.20;;;16.80;99.90;;;;;;4993580;28;20218;-59
2022/07/25 02:36:38;;;;;;;12.48;3.00;;;16.80;99.90;;;;;;4995003;28;20167;-59
2022/07/25 02:39:04;;;;;;;11.45;2.83;;;16.80;99.90;;;;;;5006472;28;20174;-59
2022/07/25 02:41:30;;;;;;;23.23;3.22;;;16.90;99.90;;;;;;5013173;28;20277;-59
2022/07/25 02:43:56;;;;;;;10.20;2.88;;;16.80;99.90;;;;;;5013111;28;20246;-59
2022/07/25 02:46:22;;;;;;;12.60;3.05;;;16.80;99.90;;;;;;4995376;28;20217;-59
2022/07/25 02:48:47;;;;;;;12.02;3.17;;;16.90;99.90;;;;;;5013051;28;20167;-59
2022/07/25 02:51:13;;;;;;;14.65;3.17;;;16.90;99.90;;;;;;5012955;28;20170;-64
2022/07/25 02:53:39;;;;;;;8.23;3.33;;;16.90;99.90;;;;;;5012403;28;20287;-59
2022/07/25 02:56:05;;;;;;;13.00;3.00;;;16.90;99.90;;;;;;4993118;28;20609;-58
2022/07/25 02:58:31;;;;;;;12.02;2.78;;;16.90;99.90;;;;;;4993177;28;20678;-59
2022/07/25 03:00:57;;;;;;;17.08;3.13;;;17.00;99.90;;;;;;4993186;28;20649;-58
2022/07/25 03:03:23;;;;;;;17.85;2.83;;;17.10;99.90;;;;;;4993031;28;20237;-58
2022/07/25 03:05:49;;;;;;;14.73;2.90;;;17.10;99.90;;;;;;4993009;28;20175;-59
2022/07/25 03:08:14;;;;;;;9.48;2.53;;;17.10;99.90;;;;;;5007456;28;20182;-59
2022/07/25 03:10:40;;;;;;;8.38;2.35;;;17.10;99.90;;;;;;5012504;28;20258;-60
2022/07/25 03:13:06;;;;;;;9.80;2.45;;;17.10;99.90;;;;;;5012333;28;20209;-57
2022/07/25 03:15:32;;;;;;;9.95;2.50;;;17.10;99.90;;;;;;5012504;28;20671;-58
2022/07/25 03:17:58;;;;;;;10.50;2.20;;;17.00;99.90;;;;;;5012372;28;20174;-58
2022/07/25 03:20:23;;;;;;;6.50;1.58;;;16.70;99.90;;;;;;5009528;28;20768;-59
2022/07/25 03:22:49;;;;;;;5.50;1.50;;;16.50;99.90;;;;;;4992707;28;20171;-59
2022/07/25 03:25:15;;;;;;;10.25;1.73;;;16.30;99.90;;;;;;5005171;28;20653;-59
2022/07/25 03:27:41;;;;;;;8.23;1.30;;;16.10;99.90;;;;;;5012150;28;20174;-59
2022/07/25 03:30:08;;;;;;;7.65;1.50;;;15.80;99.90;;;;;;4993299;28;20647;-58
2022/07/25 03:32:33;;;;;;;8.82;1.30;;;15.90;99.90;;;;;;4992358;28;20991;-58
2022/07/25 03:34:59;;;;;;;5.43;1.10;;;15.90;99.90;;;;;;4992371;28;20672;-58
2022/07/25 03:37:26;;;;;;;4.32;1.05;;;15.80;99.90;;;;;;4992354;28;20534;-59
2022/07/25 03:39:52;;;;;;;6.38;1.10;;;15.80;99.90;;;;;;4992376;28;20254;-58
2022/07/25 03:42:18;;;;;;;6.10;0.98;;;15.70;99.90;;;;;;4992225;28;20627;-58
2022/07/25 03:44:43;;;;;;;12.25;1.08;;;15.70;99.90;;;;;;4992274;28;20183;-58
2022/07/25 03:47:09;;;;;;;5.78;1.48;;;15.70;99.90;;;;;;4992173;28;20179;-58
2022/07/25 03:49:35;;;;;;;6.53;1.20;;;15.70;99.90;;;;;;4992445;28;20175;-58
2022/07/25 03:52:01;;;;;;;4.47;1.08;;;15.70;99.90;;;;;;4992207;28;20184;-59
2022/07/25 03:54:27;;;;;;;5.03;1.10;;;15.70;99.90;;;;;;4997945;28;20177;-59
2022/07/25 03:56:53;;;;;;;7.72;1.65;;;16.80;99.90;;;;;;5011735;28;20174;-59
2022/07/25 03:59:20;;;;;;;6.90;1.50;;;15.70;99.90;;;;;;5011847;28;20237;-59
2022/07/25 04:01:48;;;;;;;6.57;1.30;;;15.80;99.90;;;;;;5001671;28;20187;-58
2022/07/25 04:04:14;;;;;;;5.90;1.40;;;15.80;99.90;;;;;;4992040;28;20179;-59
2022/07/25 04:06:40;;;;;;;11.27;1.65;;;15.80;99.90;;;;;;4993040;28;20222;-59
2022/07/25 04:09:07;;;;;;;13.15;1.95;;;15.80;99.90;;;;;;5011115;28;20171;-58
2022/07/25 04:11:34;;;;;;;6.03;1.42;;;15.80;99.90;;;;;;5011554;28;20166;-59
2022/07/25 04:14:01;;;;;;;15.05;1.70;;;15.80;99.90;;;;;;5010588;28;20217;-59
2022/07/25 04:16:27;;;;;;;7.00;1.30;;;15.90;99.90;;;;;;5011584;28;20170;-59
2022/07/25 04:18:54;;;;;;;6.03;1.70;;;15.90;99.90;;;;;;5011343;28;20174;-59
2022/07/25 04:21:19;;;;;;;5.53;1.50;;;15.90;99.90;;;;;;4998948;28;20236;-58
2022/07/25 04:23:46;;;;;;;6.65;1.40;;;15.90;99.90;;;;;;4991831;28;20180;-58
2022/07/25 04:26:12;;;;;;;7.88;1.50;;;15.90;99.90;;;;;;4991269;28;20227;-58
2022/07/25 04:28:37;;;;;;;5.90;1.90;;;15.90;99.90;;;;;;4991582;28;20672;-58
2022/07/25 04:31:03;;;;;;;9.43;1.73;;;15.90;99.90;;;;;;4991665;28;20175;-58
2022/07/25 04:33:29;;;;;;;6.78;1.88;;;15.90;99.90;;;;;;4991530;28;20219;-58
2022/07/25 04:35:55;;;;;;;8.45;1.60;;;16.00;99.90;;;;;;4991524;28;20597;-58
2022/07/25 04:38:21;;;;;;;7.60;1.77;;;16.00;99.90;;;;;;4974073;28;20189;-58
2022/07/25 04:40:47;;;;;;;9.05;2.17;;;16.00;99.90;;;;;;4991511;28;20542;-59
2022/07/25 04:43:13;;;;;;;14.23;2.28;;;16.00;99.90;;;;;;5003777;28;20689;-59
2022/07/25 04:45:38;;;;;;;7.30;1.90;;;16.00;99.90;;;;;;5010438;28;20179;-59
2022/07/25 04:48:05;;;;;;;14.15;1.92;;;16.00;99.90;;;;;;5010950;28;20262;-59
2022/07/25 04:50:31;;;;;;;10.40;2.30;;;16.30;99.90;;;;;;5011023;28;20175;-59
2022/07/25 04:52:57;;;;;;;6.13;1.48;;;16.10;99.90;;;;;;5011140;28;20314;-59
2022/07/25 04:55:22;;;;;;;12.73;2.45;;;16.10;99.90;;;;;;5010919;28;20177;-59
2022/07/25 04:57:48;;;;;;;9.68;2.15;;;16.10;99.90;;;;;;5010004;28;20187;-59
2022/07/25 05:00:15;;;;;;;7.55;1.95;;;16.10;99.90;;;;;;5010826;28;20171;-60
2022/07/25 05:02:41;;;;;;;7.70;1.90;;;16.20;99.90;;;;;;5010864;28;20187;-59
2022/07/25 05:05:08;;;;;;;8.07;1.80;;;16.10;99.90;;;;;;5003882;28;20202;-59
2022/07/25 05:07:34;;;;;;;4.00;1.20;;;16.10;99.90;;;;;;4991245;28;20704;-59
2022/07/25 05:10:00;;;;;;;6.57;1.67;;;15.90;99.90;;;;;;4991360;28;20187;-59
2022/07/25 05:12:26;;;;;;;8.55;1.73;;;15.90;99.90;;;;;;5001493;28;20681;-59
2022/07/25 05:14:53;;;;;;;6.55;1.60;;;15.90;99.90;;;;;;5007337;28;20190;-59
2022/07/25 05:17:20;;;;;;;4.80;1.40;;;15.90;99.90;;;;;;5010426;28;20633;-58
2022/07/25 05:19:46;;;;;;;7.53;1.65;;;15.80;99.90;;;;;;4992038;28;20229;-58
2022/07/25 05:22:12;;;;;;;7.43;1.63;;;15.90;99.90;;;;;;4994951;28;20176;-58
2022/07/25 05:24:38;;;;;;;12.23;2.03;;;15.80;99.90;;;;;;4994635;28;20286;-57
2022/07/25 05:27:04;;;;;;;7.03;1.45;;;15.90;99.90;;;;;;4994910;28;20183;-59
2022/07/25 05:29:31;;;;;;;5.95;1.30;;;15.80;99.90;;;;;;4995122;28;20171;-59
2022/07/25 05:31:57;;;;;;;9.73;1.58;;;15.80;99.90;;;;;;5014325;28;20181;-59
2022/07/25 05:34:23;;;;;;;6.85;1.35;;;15.80;99.90;;;;;;5014557;28;20171;-59
2022/07/25 05:36:49;;;;;;;7.00;1.48;;;15.80;99.90;;;;;;5014436;28;20199;-59
2022/07/25 05:39:15;;;;;;;3.38;1.20;;;15.80;99.90;;;;;;5014186;28;20664;-60
2022/07/25 05:41:41;;;;;;;9.05;1.40;;;15.80;99.90;;;;;;5014267;28;20250;-59
2022/07/25 05:44:07;;;;;;;11.93;1.58;;;15.80;99.90;;;;;;5014044;28;20699;-59
2022/07/25 05:46:33;;;;;;;8.40;1.40;;;15.80;99.90;;;;;;5014154;28;20175;-60
2022/07/25 05:48:59;;;;;;;9.63;1.92;;;15.80;99.90;;;;;;5014186;28;20174;-59
2022/07/25 05:51:26;;;;;;;7.50;1.70;;;15.80;99.90;;;;;;5013904;28;20260;-59
2022/07/25 05:53:52;;;;;;;8.32;1.42;;;15.90;99.90;;;;;;5013822;28;20218;-60
2022/07/25 05:56:18;;;;;;;5.93;1.23;;;15.80;99.90;;;;;;5013872;28;20163;-59
2022/07/25 05:58:43;;;;;;;7.13;1.27;;;15.90;99.90;;;;;;5013837;28;20186;-59
2022/07/25 06:01:14;;;;;;;7.55;1.30;;;16.00;99.90;;;;;;5013731;28;20171;-60
2022/07/25 06:03:40;;;;;;;6.65;1.85;;;16.10;99.90;;;;;;5013740;28;20183;-59
2022/07/25 06:06:10;;;;;;;4.85;1.30;;;16.10;99.90;;;;;;5014063;28;20202;-59
2022/07/25 06:08:36;;;;;;;7.53;1.38;;;16.10;99.90;;;;;;5013918;28;20178;-60
2022/07/25 06:11:03;;;;;;;15.52;1.42;;;16.00;99.90;;;;;;5013695;28;20213;-59
2022/07/25 06:13:29;;;;;;;8.20;1.60;;;16.10;99.90;;;;;;5013577;28;20221;-59
2022/07/25 06:15:55;;;;;;;10.07;1.50;;;16.10;99.90;;;;;;5013663;28;20235;-58
2022/07/25 06:18:21;;;;;;;6.93;1.10;;;16.20;99.90;;;;;;5013536;28;20182;-59
2022/07/25 06:20:47;;;;;;;7.43;1.42;;;16.20;99.90;;;;;;5013395;28;20239;-59
2022/07/25 06:23:14;;;;;;;9.63;1.48;;;16.30;99.90;;;;;;5013502;28;20254;-59
2022/07/25 06:25:39;;;;;;;6.97;1.13;;;16.30;99.90;;;;;;5013360;28;20608;-57
2022/07/25 06:28:05;;;;;;;8.82;1.52;;;16.30;99.90;;;;;;4995517;28;20269;-58
2022/07/25 06:30:31;;;;;;;9.55;1.38;;;16.20;99.90;;;;;;5012866;28;20169;-58
2022/07/25 06:32:57;;;;;;;7.20;1.13;;;16.20;99.90;;;;;;5013011;28;20303;-58
2022/07/25 06:35:23;;;;;;;6.20;1.27;;;16.10;99.90;;;;;;5013180;28;20266;-57
2022/07/25 06:37:49;;;;;;;8.77;1.65;;;16.10;99.90;;;;;;5013085;28;20166;-58
2022/07/25 06:40:15;;;;;;;6.65;1.20;;;16.10;99.90;;;;;;5013153;28;20189;-58
2022/07/25 06:42:46;;;;;;;12.25;1.70;;;16.00;99.90;;;;;;5013181;28;20630;-58
2022/07/25 06:45:13;;;;;;;7.32;1.48;;;15.90;99.90;;;;;;5012948;28;20196;-58
2022/07/25 06:47:41;;;;;;;8.60;1.38;;;15.90;99.90;;;;;;5012896;28;20232;-58
2022/07/25 06:50:09;;;;;;;4.28;1.30;;;16.10;99.90;;;;;;5012878;28;20263;-58
2022/07/25 06:52:35;;;;;;;11.35;1.95;;;16.20;99.90;;;;;;5012791;28;20758;-58
2022/07/25 06:55:03;;;;;;;6.68;1.50;;;16.30;99.90;;;;;;5012785;28;20506;-58
2022/07/25 06:57:29;;;;;;;6.20;1.40;;;16.20;99.90;;;;;;5012811;28;20186;-59
2022/07/25 06:59:55;;;;;;;8.23;1.40;;;16.30;99.90;;;;;;5012398;28;20587;-60
2022/07/25 07:02:21;;;;;;;9.52;1.75;;;16.40;99.90;;;;;;5012152;28;20181;-66
2022/07/25 07:04:47;;;;;;;5.55;1.55;;;16.30;99.90;;;;;;4994435;28;20238;-61
2022/07/25 07:07:13;;;;;;;7.78;1.35;;;16.40;99.90;;;;;;5007689;28;20174;-62
2022/07/25 07:09:39;;;;;;;7.63;1.38;;;16.30;99.90;;;;;;5013531;28;20244;-61
2022/07/25 07:12:05;;;;;;;9.77;1.52;;;16.20;99.90;;;;;;5019312;28;20810;-60
2022/07/25 07:14:31;;;;;;;11.40;1.63;;;16.30;99.90;;;;;;5012490;28;20237;-61
2022/07/25 07:16:57;;;;;;;7.60;1.60;;;16.40;99.90;;;;;;5009341;28;20183;-61
2022/07/25 07:19:23;;;;;;;7.65;1.05;;;16.50;99.90;;;;;;5013463;28;20227;-60
2022/07/25 07:21:50;;;;;;;11.48;1.85;;;16.50;99.90;;;;;;5012089;28;20221;-68
2022/07/25 07:24:17;;;;;;;9.85;1.75;;;16.40;99.90;;;;;;5000957;28;20188;-63
2022/07/25 07:26:42;;;;;;;16.73;1.63;;;16.40;99.90;;;;;;4997502;28;20223;-62
2022/07/25 07:29:08;;;;;;;5.72;1.20;;;16.40;99.90;;;;;;5011932;28;20178;-62
2022/07/25 07:31:34;;;;;;;5.50;1.20;;;16.40;99.90;;;;;;5009069;28;20703;-60
2022/07/25 07:34:01;;;;;;;4.75;1.15;;;16.40;99.90;;;;;;5002779;28;20694;-63
2022/07/25 07:36:27;;;;;;;2.88;0.68;;;16.40;99.90;;;;;;5006164;28;20175;-62
2022/07/25 07:38:54;;;;;;;5.28;1.25;;;16.40;99.90;;;;;;5003394;28;20181;-61
2022/07/25 07:41:20;;;;;;;5.13;1.20;;;16.40;99.90;;;;;;5011995;28;20289;-61
2022/07/25 07:43:46;;;;;;;7.05;1.40;;;16.50;99.90;;;;;;4993272;28;20183;-62
2022/07/25 07:46:12;;;;;;;7.50;1.10;;;16.50;99.90;;;;;;5001498;28;20675;-64
2022/07/25 07:48:38;;;;;;;7.05;1.13;;;16.60;99.90;;;;;;5011835;28;20167;-63
2022/07/25 07:51:04;;;;;;;5.57;1.50;;;16.60;99.90;;;;;;4979726;28;20205;-59
2022/07/25 07:56:15;;;;;;;8.82;1.17;;;16.80;99.90;;;;;;5011419;28;20262;-71
2022/07/25 07:58:41;;;;;;;8.02;1.08;;;17.00;99.90;;;;;;5002494;28;20226;-70
2022/07/25 08:01:07;;;;;;;7.95;1.15;;;17.00;99.90;;;;;;4991994;28;20218;-69
2022/07/25 08:03:33;;;;;;;5.60;1.27;;;17.20;99.90;;;;;;4992126;28;20539;-67
2022/07/25 08:05:59;;;;;;;7.88;1.42;;;17.10;99.90;;;;;;4992051;28;20286;-71
2022/07/25 08:08:25;;;;;;;5.32;1.02;;;;;;;;;;4991946;28;20264;-69
2022/07/25 08:10:51;;;;;;;5.57;1.20;;;17.30;99.90;;;;;;4992086;28;20171;-68
2022/07/25 08:13:20;;;;;;;8.93;1.33;;;17.50;99.90;;;;;;4991797;28;20675;-68
2022/07/25 08:15:49;;;;;;;8.93;1.48;;;17.50;99.90;;;;;;4991936;28;20167;-68
2022/07/25 08:18:15;;;;;;;6.63;1.20;;;17.60;99.90;;;;;;4991829;28;20171;-67
2022/07/25 08:20:40;;;;;;;10.43;1.88;;;17.50;99.90;;;;;;5001357;28;20557;-67
2022/07/25 08:23:09;;;;;;;7.43;1.30;;;17.40;99.90;;;;;;4998684;28;20182;-68
2022/07/25 08:25:36;;;;;;;5.20;1.30;;;17.30;99.90;;;;;;4991554;28;20227;-67
2022/07/25 08:28:03;;;;;;;12.63;1.42;;;17.20;99.90;;;;;;4991604;28;20178;-71
2022/07/25 08:30:29;;;;;;;9.52;1.00;;;17.10;99.90;;;;;;4991450;28;20318;-69
2022/07/25 08:33:02;;;;;;;10.30;1.55;;;17.10;99.90;;;;;;4991631;28;20282;-70
2022/07/25 08:35:29;;;;;;;8.60;1.05;;;16.90;99.90;;;;;;4991684;28;20238;-71
2022/07/25 08:37:55;;;;;;;8.75;1.52;;;16.90;99.90;;;;;;4987282;28;20197;-71
2022/07/25 08:40:23;;;;;;;7.80;1.60;;;17.00;99.90;;;;;;4987255;28;20539;-66
2022/07/25 08:42:50;;;;;;;6.78;1.27;;;16.90;99.90;;;;;;4991674;28;20179;-68
2022/07/25 08:45:19;;;;;;;8.20;1.40;;;17.00;99.90;;;;;;4999959;28;20181;-67
2022/07/25 08:47:51;;;;;;;11.90;1.63;;;17.10;99.90;;;;;;4993984;28;20641;-67
2022/07/25 08:50:20;;;;;;;7.65;1.40;;;17.20;99.90;;;;;;5002920;28;20642;-67
2022/07/25 08:52:48;;;;;;;10.77;1.60;;;17.30;99.90;;;;;;4991267;28;20203;-67
2022/07/25 08:55:20;;;;;;;8.13;1.63;;;17.40;99.90;;;;;;4994892;28;20181;-61
2022/07/25 08:57:51;;;;;;;7.43;1.50;;;17.50;99.90;;;;;;4995568;28;20183;-71
2022/07/25 09:00:20;;;;;;;10.82;1.95;;;17.70;99.90;;;;;;4995402;28;20187;-73
2022/07/25 09:02:59;;;;;;;8.40;1.45;;;17.90;99.90;;;;;;4995437;28;20179;-75
2022/07/25 09:05:27;;;;;;;18.05;1.80;;;18.10;99.90;;;;;;4995229;28;20270;-75
2022/07/25 09:07:56;;;;;;;13.50;2.28;;;18.30;99.90;;;;;;4995252;28;20179;-76
2022/07/25 09:10:24;;;;;;;13.25;2.22;;;18.40;99.90;;;;;;5007565;28;20221;-76
2022/07/25 09:13:02;;;;;;;8.90;1.70;;;18.50;99.90;;;;;;5014170;28;20216;-76
2022/07/25 09:15:33;;;;;;;9.50;1.73;;;18.50;99.90;;;;;;5014916;28;20253;-74
2022/07/25 09:18:02;;;;;;;9.73;1.95;;;18.70;99.90;;;;;;4998333;28;20179;-74
2022/07/25 09:20:43;;;;;;;7.97;1.83;;;18.80;99.90;;;;;;4995385;28;20175;-74
2022/07/25 09:23:11;;;;;;;7.20;1.70;;;19.00;99.90;;;;;;5006322;28;20645;-75
2022/07/25 09:25:38;;;;;;;11.75;2.33;;;19.20;99.90;;;;;;5014727;28;20214;-74
2022/07/25 09:28:09;;;;;;;9.95;2.03;;;19.40;99.90;;;;;;5014446;28;20229;-74
2022/07/25 09:30:35;;;;;;;10.30;2.40;;;19.60;99.90;;;;;;5012097;28;20672;-73
2022/07/25 09:33:01;;;;;;;9.23;1.83;;;19.50;99.90;;;;;;5003887;28;20207;-72
2022/07/25 09:35:32;;;;;;;13.90;2.33;;;19.90;99.90;;;;;;5009290;28;20661;-72
2022/07/25 09:38:13;;;;;;;5.90;1.80;;;19.80;99.90;;;;;;5013727;28;20179;-77
2022/07/25 09:40:39;;;;;;;8.40;2.05;;;20.10;99.90;;;;;;5017369;28;20179;-72
2022/07/25 09:43:06;;;;;;;8.30;2.38;;;20.40;99.90;;;;;;5017459;28;20224;-64
2022/07/25 09:45:32;;;;;;;11.50;2.45;;;20.50;99.90;;;;;;5014262;28;20286;-63
2022/07/25 09:48:03;;;;;;;12.23;2.35;;;20.90;99.90;;;;;;4994383;28;20279;-63
2022/07/25 09:50:31;;;;;;;10.63;2.63;;;20.60;99.90;;;;;;4999694;28;20183;-63
2022/07/25 09:53:02;;;;;;;10.68;2.35;;;20.70;99.90;;;;;;5005623;28;20301;-73
2022/07/25 09:55:29;;;;;;;6.22;1.98;;;21.00;99.90;;;;;;5014233;28;20178;-73
2022/07/25 09:57:55;;;;;;;7.35;2.20;;;21.10;99.90;;;;;;4996721;28;20209;-73
2022/07/25 10:00:27;;;;;;;7.05;2.10;;;21.20;99.90;;;;;;5016860;28;20648;-75
2022/07/25 10:03:14;;;;;;;4.78;1.70;;;21.30;99.90;;;;;;4994541;28;20179;-74
2022/07/25 10:06:01;;;;;;;8.25;1.73;;;21.60;99.90;;;;;;4993702;28;20174;-73
2022/07/25 10:08:28;;;;;;;5.75;1.38;;;21.50;99.90;;;;;;4996040;28;20183;-73
2022/07/25 10:10:54;;;;;;;4.40;1.50;;;21.20;99.90;;;;;;4994699;28;20194;-74
2022/07/25 10:13:34;;;;;;;6.10;1.77;;;19.70;99.90;;;;;;5013234;28;20260;-74
2022/07/25 10:16:01;;;;;;;10.63;2.15;;;21.40;99.90;;;;;;5018768;28;20181;-73
2022/07/25 10:18:29;;;;;;;7.68;1.80;;;21.30;99.90;;;;;;4999566;28;20179;-74
2022/07/25 10:21:11;;;;;;;10.52;1.73;;;21.80;99.90;;;;;;4999158;28;20226;-75
2022/07/25 10:23:37;;;;;;;7.60;2.00;;;21.90;99.90;;;;;;5003854;28;20262;-74
2022/07/25 10:26:07;;;;;;;5.50;2.03;;;22.50;99.90;;;;;;5012580;28;20358;-71
2022/07/25 10:28:39;;;;;;;6.05;2.05;;;22.20;99.90;;;;;;4993174;28;20637;-74
2022/07/25 10:31:20;;;;;;;6.18;2.08;;;21.20;99.90;;;;;;5004422;28;20661;-74
2022/07/25 10:33:50;;;;;;;9.15;2.20;;;21.20;99.90;;;;;;4993457;28;20222;-74
2022/07/25 10:36:17;;;;;;;6.22;2.45;;;21.00;99.90;;;;;;5007721;28;20645;-74
2022/07/25 10:38:47;;;;;;;6.70;2.30;;;20.70;99.90;;;;;;5013141;28;20526;-74
2022/07/25 10:41:15;;;;;;;8.90;2.35;;;20.40;99.90;;;;;;5009295;28;20182;-74
2022/07/25 10:43:45;;;;;;;6.28;2.20;;;20.10;99.90;;;;;;4993468;28;20638;-73
2022/07/25 10:46:22;;;;;;;6.50;2.33;;;20.20;99.90;;;;;;4999984;28;20637;-73
2022/07/25 10:49:02;;;;;;;7.53;2.00;;;20.30;99.90;;;;;;5012803;28;20675;-74
2022/07/25 10:51:32;;;;;;;6.72;2.10;;;20.80;99.90;;;;;;5012855;28;20297;-71
2022/07/25 10:53:58;;;;;;;5.93;1.90;;;21.20;99.90;;;;;;5012906;28;20198;-71
2022/07/25 10:56:26;;;;;;;7.70;2.40;;;21.30;99.90;;;;;;5012687;28;20175;-71
2022/07/25 10:58:57;;;;;;;6.60;2.10;;;21.60;99.90;;;;;;5012715;28;20272;-70
2022/07/25 11:01:36;;;;;;;8.77;1.88;;;21.60;99.90;;;;;;5012568;28;20169;-70
2022/07/25 11:04:14;;;;;;;7.75;1.70;;;23.20;99.90;;;;;;5012456;28;20197;-70
2022/07/25 11:06:42;;;;;;;5.22;1.58;;;21.20;99.90;;;;;;5012435;28;20697;-71
2022/07/25 11:09:27;;;;;;;9.18;1.75;;;21.10;99.90;;;;;;5012554;28;20175;-72
2022/07/25 11:11:56;;;;;;;6.60;1.75;;;21.40;99.90;;;;;;5011452;28;20190;-72
2022/07/25 11:14:32;;;;;;;5.72;1.98;;;21.90;99.90;;;;;;5012849;28;20198;-73
2022/07/25 11:17:10;;;;;;;7.40;1.83;;;22.20;99.90;;;;;;5013951;28;20177;-74
2022/07/25 11:19:36;;;;;;;4.20;1.83;;;22.20;99.90;;;;;;5011710;28;20657;-74
2022/07/25 11:22:05;;;;;;;5.80;1.73;;;21.50;99.90;;;;;;4994626;28;20175;-73
2022/07/25 11:24:42;;;;;;;6.30;2.25;;;21.30;99.90;;;;;;4988440;28;20222;-74
2022/07/25 11:27:10;;;;;;;8.18;1.92;;;21.00;99.90;;;;;;5004720;28;20210;-74
2022/07/25 11:29:37;;;;;;;3.67;1.58;;;20.60;99.90;;;;;;5012038;28;20186;-74
2022/07/25 11:32:10;;;;;;;6.55;2.13;;;20.20;99.90;;;;;;5011890;28;20183;-73
2022/07/25 11:34:40;;;;;;;4.75;1.55;;;20.20;99.90;;;;;;5012486;28;20194;-74
2022/07/25 11:37:08;;;;;;;7.32;1.88;;;20.30;99.90;;;;;;4992561;28;20246;-74
2022/07/25 11:39:38;;;;;;;7.50;2.15;;;20.30;99.90;;;;;;5011646;28;20185;-75
2022/07/25 11:42:07;;;;;;;6.50;2.10;;;20.40;99.90;;;;;;4994394;28;20245;-72
2022/07/25 11:44:54;;;;;;;11.43;2.47;;;20.60;99.90;;;;;;5010831;28;20258;-72
2022/07/25 11:47:29;;;;;;;6.95;1.95;;;21.00;99.90;;;;;;5011889;28;20186;-71
2022/07/25 11:49:57;;;;;;;7.30;1.70;;;21.10;99.90;;;;;;5011865;28;20253;-71
2022/07/25 11:52:33;;;;;;;10.50;1.95;;;20.90;99.90;;;;;;5011956;28;20638;-71
2022/07/25 11:55:07;;;;;;;7.45;1.92;;;21.00;99.90;;;;;;5011261;28;20543;-70
2022/07/25 11:57:40;;;;;;;9.27;2.08;;;20.90;99.90;;;;;;5011104;28;20540;-73
2022/07/25 12:00:21;;;;;;;6.10;2.20;;;20.90;99.90;;;;;;5019863;28;20178;-74
2022/07/25 12:02:49;;;;;;;7.32;2.30;;;20.60;99.90;;;;;;5011012;28;20189;-75
2022/07/25 12:05:21;;;;;;;6.40;2.72;;;20.60;99.90;;;;;;5011870;28;20167;-76
2022/07/25 12:07:51;;;;;;;8.00;2.70;;;20.60;99.90;;;;;;5011951;28;20194;-75
2022/07/25 12:10:23;;;;;;;9.77;2.47;;;20.80;99.90;;;;;;5007423;28;20186;-74
2022/07/25 12:12:54;;;;;;;5.53;2.33;;;21.00;99.90;;;;;;4983667;28;20317;-76
2022/07/25 12:15:31;;;;;;;6.13;2.17;;;21.20;99.90;;;;;;5008655;28;20172;-74
2022/07/25 12:18:01;;;;;;;12.05;2.25;;;21.40;99.90;;;;;;4992373;28;20175;-75
2022/07/25 12:20:33;;;;;;;11.73;2.83;;;21.20;99.90;;;;;;5008585;28;20190;-75
2022/07/25 12:23:03;;;;;;;5.78;2.20;;;21.20;99.90;;;;;;5011736;28;20220;-74
2022/07/25 12:25:30;;;;;;;4.97;2.05;;;21.10;99.90;;;;;;5011389;28;20264;-73
2022/07/25 12:27:57;;;;;;;5.65;1.83;;;21.20;99.90;;;;;;5011206;28;20171;-74
2022/07/25 12:30:24;;;;;;;3.17;1.90;;;21.30;99.90;;;;;;5011567;28;20175;-74
2022/07/25 12:32:50;;;;;;;5.07;2.03;;;21.50;99.90;;;;;;5011339;28;20221;-73
2022/07/25 12:35:16;;;;;;;6.65;1.50;;;21.60;99.90;;;;;;5003350;28;20179;-73
2022/07/25 12:37:43;;;;;;;4.78;1.75;;;21.50;99.90;;;;;;4991772;28;20198;-75
2022/07/25 12:40:11;;;;;;;9.05;2.35;;;21.70;99.90;;;;;;5002588;28;20182;-74
2022/07/25 12:42:37;;;;;;;11.95;2.05;;;21.80;99.90;;;;;;5006623;28;20649;-73
2022/07/25 12:45:04;;;;;;;4.22;1.90;;;21.40;99.90;;;;;;5001426;28;20174;-73
2022/07/25 12:47:30;;;;;;;7.28;1.83;;;21.50;99.90;;;;;;5012061;28;20190;-74